Time;durP1;ratioP1;P1;durP2;ratioP2;P2;SDS_P1;SDS_P2;PMS_P1;PMS_P2;Temp;Humidity;BMP_temperature;BMP_pressure;BME280_temperature;BME280_humidity;BME280_pressure;Samples;Min_cycle;Max_cycle;Signal;HPM_P1;HPM_P2
2024/04/03 00:01:22;;;;;;;8.95;2.10;;;;;;;;;;5070585;28;20070;-66
2024/04/03 00:03:48;;;;;;;7.25;2.17;;;;;;;;;;5066303;28;20062;-67
2024/04/03 00:06:15;;;;;;;7.93;1.88;;;;;;;;;;5061348;28;20218;-66
2024/04/03 00:08:41;;;;;;;5.53;2.15;;;;;;;;;;5058598;28;20048;-66
2024/04/03 00:11:09;;;;;;;8.80;2.15;;;;;;;;;;5062316;28;20640;-67
2024/04/03 00:13:35;;;;;;;8.80;2.30;;;;;;;;;;5056134;28;20054;-66
2024/04/03 00:16:01;;;;;;;8.38;2.38;;;;;;;;;;5051425;28;20052;-67
2024/04/03 00:18:27;;;;;;;9.00;2.40;;;;;;;;;;5043017;28;20048;-66
2024/04/03 00:21:02;;;;;;;5.72;1.95;;;;;;;;;;5052456;28;20044;-65
2024/04/03 00:23:28;;;;;;;6.75;2.30;;;;;;;;;;5057705;28;20132;-66
2024/04/03 00:25:56;;;;;;;10.43;2.92;;;;;;;;;;5050242;28;20057;-65
2024/04/03 00:28:27;;;;;;;11.50;2.70;;;;;;;;;;5040355;28;20582;-66
2024/04/03 00:30:54;;;;;;;9.02;2.40;;;;;;;;;;5051173;28;20053;-66
2024/04/03 00:33:21;;;;;;;6.40;2.60;;;;;;;;;;5049931;28;20080;-66
2024/04/03 00:35:58;;;;;;;7.70;2.40;;;;;;;;;;5050346;28;20223;-67
2024/04/03 00:38:24;;;;;;;7.35;2.78;;;;;;;;;;5050145;28;20190;-68
2024/04/03 00:40:58;;;;;;;8.38;2.70;;;;;;;;;;5054636;28;20153;-67
2024/04/03 00:43:26;;;;;;;6.80;2.90;;;;;;;;;;5053562;28;20051;-67
2024/04/03 00:45:54;;;;;;;11.02;3.05;;;;;;;;;;5048064;28;20061;-66
2024/04/03 00:48:20;;;;;;;6.87;3.30;;;;;;;;;;5065634;28;20136;-67
2024/04/03 00:50:48;;;;;;;8.10;3.05;;;;;;;;;;5045052;28;20044;-65
2024/04/03 00:53:15;;;;;;;6.65;3.00;;;;;;;;;;5045980;28;20067;-66
2024/04/03 00:55:42;;;;;;;6.30;2.78;;;;;;;;;;5055156;28;20064;-66
2024/04/03 00:58:08;;;;;;;8.32;2.97;;;;;;;;;;5046189;28;20053;-65
2024/04/03 01:00:36;;;;;;;7.78;3.00;;;;;;;;;;5032209;28;20049;-66
2024/04/03 01:03:09;;;;;;;7.18;3.35;;;;;;;;;;5047675;28;20075;-66
2024/04/03 01:05:35;;;;;;;8.90;3.03;;;;;;;;;;5041329;28;20045;-67
2024/04/03 01:08:01;;;;;;;10.07;3.28;;;;;;;;;;5030572;28;20266;-66
2024/04/03 01:10:29;;;;;;;9.85;3.40;;;;;;;;;;5050126;28;20098;-66
2024/04/03 01:13:04;;;;;;;9.63;2.85;;;;;;;;;;5046349;28;20045;-66
2024/04/03 01:15:30;;;;;;;5.32;2.95;;;;;;;;;;5038104;28;20049;-66
2024/04/03 01:17:57;;;;;;;8.48;2.85;;;;;;;;;;5034924;28;20059;-67
2024/04/03 01:20:27;;;;;;;6.32;2.83;;;;;;;;;;5049081;28;20368;-67
2024/04/03 01:22:53;;;;;;;5.13;2.72;;;;;;;;;;5051553;28;20079;-66
2024/04/03 01:25:21;;;;;;;7.32;3.80;;;;;;;;;;5051724;28;20044;-65
2024/04/03 01:27:47;;;;;;;11.70;5.03;;;;;;;;;;5041176;28;20121;-65
2024/04/03 01:30:14;;;;;;;13.88;4.38;;;;;;;;;;5056636;28;20129;-65
2024/04/03 01:32:41;;;;;;;8.43;2.55;;;;;;;;;;5043784;28;20044;-66
2024/04/03 01:35:08;;;;;;;5.57;2.35;;;;;;;;;;5054859;28;20053;-64
2024/04/03 01:37:33;;;;;;;6.78;2.38;;;;;;;;;;5050320;28;20064;-66
2024/04/03 01:40:00;;;;;;;7.03;2.78;;;;;;;;;;5040218;28;20045;-66
2024/04/03 01:42:28;;;;;;;4.07;1.92;;;;;;;;;;5044897;28;20144;-65
2024/04/03 01:44:54;;;;;;;6.40;2.70;;;;;;;;;;5040053;28;20055;-66
2024/04/03 01:47:20;;;;;;;6.53;2.45;;;;;;;;;;5038606;28;20061;-64
2024/04/03 01:49:47;;;;;;;5.70;2.47;;;;;;;;;;5038682;28;20045;-64
2024/04/03 01:52:13;;;;;;;6.70;2.85;;;;;;;;;;5048433;28;20052;-67
2024/04/03 01:54:40;;;;;;;8.00;2.92;;;;;;;;;;5043204;28;20063;-65
2024/04/03 01:57:05;;;;;;;5.75;3.00;;;;;;;;;;5041041;28;20125;-65
2024/04/03 01:59:34;;;;;;;7.55;2.90;;;;;;;;;;5042354;28;20056;-67
2024/04/03 02:01:59;;;;;;;4.60;2.20;;;;;;;;;;5055542;28;20052;-65
2024/04/03 02:04:26;;;;;;;4.30;1.58;;;;;;;;;;5004763;28;20349;-66
2024/04/03 02:06:52;;;;;;;3.72;1.73;;;;;;;;;;5043761;28;20049;-66
2024/04/03 02:09:18;;;;;;;4.50;1.77;;;;;;;;;;5051418;28;20040;-66
2024/04/03 02:11:44;;;;;;;4.78;1.67;;;;;;;;;;5049432;28;20063;-67
2024/04/03 02:14:12;;;;;;;6.97;2.00;;;;;;;;;;5045737;28;20052;-65
2024/04/03 02:16:41;;;;;;;3.65;1.63;;;;;;;;;;5048234;28;20108;-66
2024/04/03 02:19:07;;;;;;;;;;;;;;;;;;5051260;28;20052;-65
2024/04/03 02:21:35;;;;;;;2.58;1.38;;;;;;;;;;5051602;28;19935;-66
2024/04/03 02:24:05;;;;;;;3.35;1.70;;;;;;;;;;5028124;28;20185;-65
2024/04/03 02:26:30;;;;;;;3.35;1.33;;;;;;;;;;5054453;28;20053;-68
2024/04/03 02:28:57;;;;;;;4.43;1.73;;;;;;;;;;5051389;28;20060;-66
2024/04/03 02:31:23;;;;;;;4.90;1.40;;;;;;;;;;5054990;28;20056;-66
2024/04/03 02:33:51;;;;;;;4.90;2.03;;;;;;;;;;5022827;28;20060;-65
2024/04/03 02:36:17;;;;;;;5.80;1.63;;;;;;;;;;5069927;28;20048;-66
2024/04/03 02:38:44;;;;;;;2.88;1.35;;;;;;;;;;5055441;28;20079;-65
2024/04/03 02:41:11;;;;;;;3.97;1.63;;;;;;;;;;5047981;28;20049;-66
2024/04/03 02:43:39;;;;;;;4.22;1.40;;;;;;;;;;5044644;28;20053;-66
2024/04/03 02:46:04;;;;;;;6.18;2.28;;;;;;;;;;5046559;28;20040;-66
2024/04/03 02:48:31;;;;;;;6.03;2.05;;;;;;;;;;5048232;28;20055;-66
2024/04/03 02:51:03;;;;;;;4.15;2.28;;;;;;;;;;5042769;28;20110;-66
2024/04/03 02:53:30;;;;;;;4.72;1.80;;;;;;;;;;5028123;28;20053;-66
2024/04/03 02:55:59;;;;;;;4.50;1.80;;;;;;;;;;5038963;28;20060;-66
2024/04/03 02:58:25;;;;;;;;;;;;;;;;;;5037050;28;20056;-66
2024/04/03 03:00:58;;;;;;;5.75;1.40;;;;;;;;;;5051298;28;19928;-66
2024/04/03 03:03:26;;;;;;;4.70;1.48;;;;;;;;;;5035009;28;20114;-66
2024/04/03 03:05:52;;;;;;;6.72;1.70;;;;;;;;;;5030783;28;20052;-66
2024/04/03 03:08:20;;;;;;;2.60;1.30;;;;;;;;;;5051853;28;20096;-66
2024/04/03 03:10:46;;;;;;;3.97;1.67;;;;;;;;;;5047069;28;21500;-66
2024/04/03 03:13:13;;;;;;;3.92;1.50;;;;;;;;;;5041196;28;20125;-66
2024/04/03 03:15:38;;;;;;;3.70;1.77;;;;;;;;;;5042384;28;20077;-66
2024/04/03 03:18:05;;;;;;;4.47;1.63;;;;;;;;;;5046061;28;20277;-67
2024/04/03 03:20:33;;;;;;;6.07;1.60;;;;;;;;;;5037511;28;20099;-66
2024/04/03 03:23:00;;;;;;;5.07;1.67;;;;;;;;;;5053560;28;20137;-66
2024/04/03 03:25:27;;;;;;;3.70;1.60;;;;;;;;;;5026755;28;20146;-67
2024/04/03 03:27:53;;;;;;;5.07;1.65;;;;;;;;;;5041384;28;20482;-66
2024/04/03 03:30:19;;;;;;;6.82;1.60;;;;;;;;;;5041505;28;20538;-66
2024/04/03 03:32:46;;;;;;;2.88;1.35;;;;;;;;;;5051044;28;20122;-67
2024/04/03 03:35:11;;;;;;;5.60;1.73;;;;;;;;;;5038026;28;20133;-67
2024/04/03 03:37:41;;;;;;;5.38;1.80;;;;;;;;;;5050207;28;20072;-68
2024/04/03 03:40:11;;;;;;;8.13;1.40;;;;;;;;;;5045428;28;20068;-67
2024/04/03 03:42:39;;;;;;;3.80;1.33;;;;;;;;;;5044435;28;20061;-67
2024/04/03 03:45:05;;;;;;;2.47;1.50;;;;;;;;;;5033900;28;20060;-67
2024/04/03 03:47:32;;;;;;;3.42;1.45;;;;;;;;;;5053352;28;20056;-67
2024/04/03 03:52:44;;;;;;;4.90;1.50;;;;;;;;;;5046103;28;20048;-66
2024/04/03 03:55:10;;;;;;;3.33;1.27;;;;;;;;;;5048209;28;20044;-66
2024/04/03 03:57:39;;;;;;;3.60;1.50;;;;;;;;;;5045133;28;20089;-66
2024/04/03 04:00:06;;;;;;;6.93;1.60;;;;;;;;;;5047848;28;20109;-67
2024/04/03 04:02:33;;;;;;;8.02;1.60;;;;;;;;;;5047146;28;20052;-66
2024/04/03 04:04:59;;;;;;;6.22;1.58;;;;;;;;;;5021792;28;20057;-66
2024/04/03 04:07:26;;;;;;;4.38;1.55;;;;;;;;;;5046537;28;20052;-66
2024/04/03 04:09:52;;;;;;;4.72;1.58;;;;;;;;;;5044233;28;20048;-66
2024/04/03 04:12:20;;;;;;;5.18;1.35;;;;;;;;;;5048557;28;20084;-66
2024/04/03 04:14:51;;;;;;;4.43;1.50;;;;;;;;;;5030511;28;20053;-66
2024/04/03 04:17:18;;;;;;;3.40;1.30;;;;;;;;;;5033325;28;20296;-66
2024/04/03 04:19:44;;;;;;;4.07;1.48;;;;;;;;;;5049247;28;20060;-66
2024/04/03 04:22:11;;;;;;;3.10;1.13;;;;;;;;;;5049189;28;20053;-66
2024/04/03 04:24:38;;;;;;;5.95;1.38;;;;;;;;;;5041978;28;20068;-66
2024/04/03 04:27:07;;;;;;;5.00;1.27;;;;;;;;;;5049186;28;20076;-66
2024/04/03 04:29:35;;;;;;;3.05;1.40;;;;;;;;;;5052553;28;20068;-66
2024/04/03 04:32:04;;;;;;;2.97;1.40;;;;;;;;;;5041219;28;20080;-66
2024/04/03 04:34:30;;;;;;;4.35;1.60;;;;;;;;;;5037414;28;20051;-66
2024/04/03 04:36:56;;;;;;;3.85;1.48;;;;;;;;;;5038825;28;20274;-67
2024/04/03 04:39:22;;;;;;;6.78;1.50;;;;;;;;;;5047579;28;20059;-67
2024/04/03 04:41:49;;;;;;;4.80;1.25;;;;;;;;;;5039558;28;20056;-66
2024/04/03 04:44:15;;;;;;;4.45;1.30;;;;;;;;;;5029198;28;20059;-67
2024/04/03 04:46:42;;;;;;;3.75;1.27;;;;;;;;;;5050579;28;20044;-66
2024/04/03 04:49:09;;;;;;;4.43;1.42;;;;;;;;;;5047034;28;20044;-66
2024/04/03 04:51:38;;;;;;;2.95;1.00;;;;;;;;;;5048713;28;20056;-67
2024/04/03 04:54:04;;;;;;;2.60;1.15;;;;;;;;;;5032875;28;20064;-66
2024/04/03 04:56:31;;;;;;;2.63;1.10;;;;;;;;;;5046943;28;20053;-66
2024/04/03 04:58:57;;;;;;;3.78;1.27;;;;;;;;;;5052994;28;20064;-66
2024/04/03 05:01:23;;;;;;;3.45;1.33;;;;;;;;;;5037189;28;20068;-66
2024/04/03 05:03:49;;;;;;;4.95;1.30;;;;;;;;;;5040228;28;20088;-66
2024/04/03 05:06:18;;;;;;;7.30;2.00;;;;;;;;;;5053954;28;20056;-66
2024/04/03 05:08:44;;;;;;;;;;;;;;;;;;5049626;28;20051;-65
2024/04/03 05:11:10;;;;;;;2.17;1.23;;;;;;;;;;5053621;28;19928;-65
2024/04/03 05:13:37;;;;;;;3.83;1.33;;;;;;;;;;5032514;28;20053;-65
2024/04/03 05:16:07;;;;;;;3.50;1.40;;;;;;;;;;5035355;28;20170;-65
2024/04/03 05:18:33;;;;;;;6.15;1.20;;;;;;;;;;5043775;28;20140;-65
2024/04/03 05:21:00;;;;;;;3.08;1.38;;;;;;;;;;5048306;28;20132;-65
2024/04/03 05:23:29;;;;;;;2.55;1.13;;;;;;;;;;5032613;28;20147;-66
2024/04/03 05:25:57;;;;;;;3.28;1.33;;;;;;;;;;5024835;28;20158;-66
2024/04/03 05:28:25;;;;;;;6.97;1.50;;;;;;;;;;5050016;28;20048;-66
2024/04/03 05:30:52;;;;;;;5.10;1.70;;;;;;;;;;5043328;28;20132;-66
2024/04/03 05:33:19;;;;;;;3.17;1.20;;;;;;;;;;5041121;28;20148;-66
2024/04/03 05:35:54;;;;;;;5.18;1.33;;;;;;;;;;5010466;28;20119;-65
2024/04/03 05:38:20;;;;;;;5.45;1.23;;;;;;;;;;5043088;28;20048;-66
2024/04/03 05:40:52;;;;;;;7.13;1.45;;;;;;;;;;5043199;28;20057;-66
2024/04/03 05:43:18;;;;;;;3.22;1.00;;;;;;;;;;5041639;28;20040;-67
2024/04/03 05:45:46;;;;;;;5.47;1.38;;;;;;;;;;5021536;28;20126;-67
2024/04/03 05:48:12;;;;;;;2.75;0.98;;;;;;;;;;5048865;28;20141;-66
2024/04/03 05:50:39;;;;;;;9.88;3.67;;;;;;;;;;5043612;28;20044;-69
2024/04/03 05:53:05;;;;;;;6.50;1.90;;;;;;;;;;5042457;28;20490;-65
2024/04/03 05:55:32;;;;;;;7.68;2.90;;;;;;;;;;5035790;28;20056;-68
2024/04/03 05:58:00;;;;;;;3.85;1.30;;;;;;;;;;5031921;28;20071;-67
2024/04/03 06:00:27;;;;;;;2.88;1.27;;;;;;;;;;5055431;28;20055;-67
2024/04/03 06:02:53;;;;;;;4.72;1.30;;;;;;;;;;5048565;28;20084;-66
2024/04/03 06:05:20;;;;;;;2.92;1.30;;;;;;;;;;4995070;28;20127;-67
2024/04/03 06:07:46;;;;;;;6.13;1.88;;;;;;;;;;5047344;28;20056;-66
2024/04/03 06:10:16;;;;;;;4.95;1.45;;;;;;;;;;5052113;28;20040;-67
2024/04/03 06:12:42;;;;;;;9.90;2.58;;;;;;;;;;5040314;28;20063;-66
2024/04/03 06:15:10;;;;;;;5.47;1.63;;;;;;;;;;5023466;28;20048;-66
2024/04/03 06:17:36;;;;;;;3.17;1.30;;;;;;;;;;5044764;28;20110;-67
2024/04/03 06:20:08;;;;;;;7.47;1.67;;;;;;;;;;5049262;28;20184;-66
2024/04/03 06:22:34;;;;;;;4.15;1.40;;;;;;;;;;5049578;28;20137;-66
2024/04/03 06:25:01;;;;;;;3.60;1.33;;;;;;;;;;5024434;28;20131;-67
2024/04/03 06:27:26;;;;;;;5.90;1.70;;;;;;;;;;5049028;28;20090;-66
2024/04/03 06:29:53;;;;;;;2.83;1.20;;;;;;;;;;5048885;28;20104;-67
2024/04/03 06:32:20;;;;;;;6.28;1.40;;;;;;;;;;5047395;28;20139;-67
2024/04/03 06:34:50;;;;;;;6.05;1.42;;;;;;;;;;5037174;28;20044;-66
2024/04/03 06:37:16;;;;;;;7.22;1.80;;;;;;;;;;5052094;28;20040;-67
2024/04/03 06:39:43;;;;;;;5.72;1.42;;;;;;;;;;5045376;28;20156;-66
2024/04/03 06:42:09;;;;;;;6.88;1.40;;;;;;;;;;5052627;28;20045;-67
2024/04/03 06:44:37;;;;;;;2.63;1.27;;;;;;;;;;5029819;28;20051;-66
2024/04/03 06:47:03;;;;;;;;;;;;;;;;;;5038689;28;20059;-66
2024/04/03 06:49:32;;;;;;;5.47;1.35;;;;;;;;;;5051426;28;19928;-66
2024/04/03 06:52:01;;;;;;;3.35;1.35;;;;;;;;;;5047640;28;20041;-66
2024/04/03 06:54:27;;;;;;;4.20;1.63;;;;;;;;;;5034571;28;20082;-66
2024/04/03 06:56:53;;;;;;;12.35;3.97;;;;;;;;;;5053196;28;20105;-65
2024/04/03 06:59:20;;;;;;;6.93;2.35;;;;;;;;;;5049299;28;20246;-66
2024/04/03 07:01:46;;;;;;;8.70;2.00;;;;;;;;;;5040470;28;20057;-68
2024/04/03 07:04:13;;;;;;;5.95;1.60;;;;;;;;;;5006918;28;20055;-66
2024/04/03 07:06:41;;;;;;;6.13;1.60;;;;;;;;;;5035399;28;20052;-67
2024/04/03 07:09:08;;;;;;;6.05;1.58;;;;;;;;;;5040604;28;20053;-67
2024/04/03 07:11:34;;;;;;;4.68;1.50;;;;;;;;;;5047634;28;20077;-67
2024/04/03 07:14:01;;;;;;;6.22;1.67;;;;;;;;;;5021865;28;20337;-67
2024/04/03 07:16:26;;;;;;;5.50;1.70;;;;;;;;;;5052354;28;20059;-68
2024/04/03 07:18:56;;;;;;;3.35;1.40;;;;;;;;;;5064871;28;20056;-67
2024/04/03 07:21:22;;;;;;;4.72;1.73;;;;;;;;;;5053938;28;20393;-67
2024/04/03 07:23:51;;;;;;;5.78;1.80;;;;;;;;;;5033389;28;20048;-67
2024/04/03 07:26:19;;;;;;;7.47;1.70;;;;;;;;;;5047656;28;20048;-67
2024/04/03 07:28:46;;;;;;;3.90;1.40;;;;;;;;;;5048207;28;20045;-67
2024/04/03 07:31:14;;;;;;;6.88;1.67;;;;;;;;;;5053316;28;20049;-67
2024/04/03 07:33:43;;;;;;;3.80;1.67;;;;;;;;;;5045913;28;20063;-67
2024/04/03 07:36:09;;;;;;;5.97;1.40;;;;;;;;;;5041916;28;20060;-67
2024/04/03 07:38:36;;;;;;;6.65;1.60;;;;;;;;;;5051426;28;20056;-67
2024/04/03 07:41:03;;;;;;;7.15;1.38;;;;;;;;;;5056032;28;20130;-67
2024/04/03 07:43:30;;;;;;;4.32;1.35;;;;;;;;;;5050465;28;20052;-67
2024/04/03 07:45:58;;;;;;;8.23;1.50;;;;;;;;;;5009530;28;20044;-68
2024/04/03 07:48:25;;;;;;;5.82;1.80;;;;;;;;;;5048094;28;20050;-67
2024/04/03 07:50:58;;;;;;;6.30;1.50;;;;;;;;;;5048135;28;20064;-66
2024/04/03 07:53:25;;;;;;;7.00;1.67;;;;;;;;;;5053264;28;20044;-67
2024/04/03 07:55:51;;;;;;;4.85;1.58;;;;;;;;;;5025334;28;20139;-67
2024/04/03 07:58:20;;;;;;;3.80;1.42;;;;;;;;;;5048657;28;20051;-68
2024/04/03 08:00:46;;;;;;;5.32;1.85;;;;;;;;;;5045750;28;20061;-68
2024/04/03 08:03:12;;;;;;;3.13;1.50;;;;;;;;;;5049339;28;20071;-68
2024/04/03 08:05:38;;;;;;;5.15;1.48;;;;;;;;;;4978415;28;20065;-68
2024/04/03 08:08:05;;;;;;;4.28;1.70;;;;;;;;;;5042234;28;20149;-68
2024/04/03 08:10:31;;;;;;;4.63;1.35;;;;;;;;;;5046887;28;20056;-68
2024/04/03 08:12:58;;;;;;;4.90;1.20;;;;;;;;;;5041892;28;20059;-67
2024/04/03 08:15:26;;;;;;;5.13;1.50;;;;;;;;;;5030913;28;20060;-68
2024/04/03 08:17:52;;;;;;;5.05;1.58;;;;;;;;;;5041419;28;20127;-68
2024/04/03 08:20:18;;;;;;;4.70;1.63;;;;;;;;;;5057707;28;20052;-68
2024/04/03 08:22:45;;;;;;;3.58;1.30;;;;;;;;;;5051890;28;20064;-67
2024/04/03 08:25:13;;;;;;;3.53;1.13;;;;;;;;;;4984389;28;20129;-67
2024/04/03 08:27:40;;;;;;;4.00;1.40;;;;;;;;;;5048349;28;20056;-69
2024/04/03 08:30:08;;;;;;;4.22;1.50;;;;;;;;;;5053060;28;20048;-67
2024/04/03 08:32:38;;;;;;;5.82;1.48;;;;;;;;;;5055060;28;20056;-68
2024/04/03 08:35:04;;;;;;;3.20;1.23;;;;;;;;;;5033948;28;20045;-67
2024/04/03 08:37:31;;;;;;;6.07;1.67;;;;;;;;;;5059362;28;20328;-67
2024/04/03 08:39:57;;;;;;;6.55;1.40;;;;;;;;;;5038057;28;20060;-67
2024/04/03 08:42:24;;;;;;;4.97;1.67;;;;;;;;;;5057463;28;20064;-66
2024/04/03 08:44:50;;;;;;;8.48;1.67;;;;;;;;;;5017173;28;20048;-66
2024/04/03 08:47:18;;;;;;;2.58;1.33;;;;;;;;;;5032524;28;20122;-67
2024/04/03 08:49:46;;;;;;;4.85;1.50;;;;;;;;;;5041064;28;20076;-68
2024/04/03 08:52:12;;;;;;;4.40;1.30;;;;;;;;;;5048880;28;20049;-67
2024/04/03 08:54:40;;;;;;;4.97;1.58;;;;;;;;;;5009133;28;20066;-68
2024/04/03 08:57:07;;;;;;;3.42;1.45;;;;;;;;;;5039732;28;20048;-66
2024/04/03 08:59:34;;;;;;;6.28;1.60;;;;;;;;;;5049970;28;20072;-66
2024/04/03 09:02:01;;;;;;;4.82;1.60;;;;;;;;;;5037462;28;20139;-66
2024/04/03 09:04:31;;;;;;;3.33;1.55;;;;;;;;;;5035670;28;20057;-66
2024/04/03 09:07:00;;;;;;;7.90;1.77;;;;;;;;;;5048540;28;20048;-66
2024/04/03 09:09:27;;;;;;;5.15;1.77;;;;;;;;;;5046991;28;20121;-66
2024/04/03 09:12:01;;;;;;;4.25;1.58;;;;;;;;;;5039348;28;20164;-66
2024/04/03 09:14:28;;;;;;;5.70;1.48;;;;;;;;;;5017476;28;20053;-66
2024/04/03 09:16:59;;;;;;;5.15;1.63;;;;;;;;;;5047489;28;20053;-66
2024/04/03 09:19:24;;;;;;;2.90;1.55;;;;;;;;;;5053639;28;20044;-66
2024/04/03 09:21:53;;;;;;;5.28;1.92;;;;;;;;;;5044108;28;20122;-66
2024/04/03 09:24:20;;;;;;;3.67;1.85;;;;;;;;;;5021002;28;20048;-67
2024/04/03 09:26:48;;;;;;;12.52;2.50;;;;;;;;;;5050538;28;20072;-67
2024/04/03 09:29:17;;;;;;;3.67;1.73;;;;;;;;;;5052475;28;20057;-68
2024/04/03 09:31:44;;;;;;;5.10;1.52;;;;;;;;;;5042237;28;20052;-66
2024/04/03 09:34:12;;;;;;;3.67;1.63;;;;;;;;;;5045946;28;20136;-67
2024/04/03 09:36:40;;;;;;;6.93;1.90;;;;;;;;;;5047324;28;20067;-66
2024/04/03 09:39:09;;;;;;;3.17;1.45;;;;;;;;;;5045469;28;20059;-68
2024/04/03 09:41:41;;;;;;;5.38;1.50;;;;;;;;;;5047176;28;20123;-66
2024/04/03 09:44:08;;;;;;;4.57;1.80;;;;;;;;;;5043850;28;20048;-66
2024/04/03 09:46:43;;;;;;;4.88;2.17;;;;;;;;;;5030754;28;20055;-66
2024/04/03 09:49:10;;;;;;;5.13;2.20;;;;;;;;;;5045998;28;20045;-66
2024/04/03 09:51:39;;;;;;;4.07;1.90;;;;;;;;;;5044239;28;20125;-67
2024/04/03 09:54:07;;;;;;;4.30;2.08;;;;;;;;;;5044788;28;20216;-66
2024/04/03 09:56:34;;;;;;;6.13;2.17;;;;;;;;;;5051455;28;20247;-66
2024/04/03 09:59:02;;;;;;;4.07;2.05;;;;;;;;;;5039969;28;20055;-66
2024/04/03 10:01:30;;;;;;;5.88;2.20;;;;;;;;;;5048814;28;20040;-66
2024/04/03 10:04:02;;;;;;;6.65;2.47;;;;;;;;;;5038612;28;20057;-66
2024/04/03 10:06:29;;;;;;;5.60;2.53;;;;;;;;;;5044061;28;20127;-66
2024/04/03 10:08:54;;;;;;;7.03;2.40;;;;;;;;;;5053322;28;20056;-66
2024/04/03 10:11:22;;;;;;;6.75;2.65;;;;;;;;;;5044377;28;20053;-66
2024/04/03 10:13:51;;;;;;;6.47;2.22;;;;;;;;;;5043211;28;20048;-66
2024/04/03 10:16:20;;;;;;;6.30;2.17;;;;;;;;;;4998012;28;20045;-65
2024/04/03 10:18:50;;;;;;;7.95;2.50;;;;;;;;;;5043283;28;20056;-66
2024/04/03 10:21:19;;;;;;;4.85;2.10;;;;;;;;;;5048339;28;20041;-65
2024/04/03 10:23:48;;;;;;;9.57;2.22;;;;;;;;;;5038100;28;20058;-66
2024/04/03 10:26:16;;;;;;;5.43;2.00;;;;;;;;;;5011782;28;20195;-65
2024/04/03 10:28:44;;;;;;;8.02;1.95;;;;;;;;;;5052310;28;20057;-66
2024/04/03 10:31:17;;;;;;;5.13;1.92;;;;;;;;;;5049438;28;20086;-66
2024/04/03 10:33:48;;;;;;;4.47;1.67;;;;;;;;;;5051373;28;20521;-65
2024/04/03 10:36:16;;;;;;;6.18;1.75;;;;;;;;;;5020252;28;20044;-65
2024/04/03 10:38:42;;;;;;;3.92;1.55;;;;;;;;;;5047594;28;20113;-66
2024/04/03 10:41:09;;;;;;;5.38;2.00;;;;;;;;;;5052160;28;20049;-65
2024/04/03 10:43:36;;;;;;;4.53;1.45;;;;;;;;;;5036931;28;20246;-65
2024/04/03 10:46:05;;;;;;;3.13;1.70;;;;;;;;;;5029985;28;20084;-66
2024/04/03 10:48:33;;;;;;;4.60;2.05;;;;;;;;;;5046903;28;21006;-66
2024/04/03 10:51:02;;;;;;;5.13;1.98;;;;;;;;;;5042666;28;20049;-65
2024/04/03 10:53:28;;;;;;;6.72;1.77;;;;;;;;;;5041319;28;20053;-66
2024/04/03 10:55:56;;;;;;;7.13;1.77;;;;;;;;;;5030146;28;20044;-68
2024/04/03 10:58:21;;;;;;;4.47;1.90;;;;;;;;;;5049331;28;20048;-65
2024/04/03 11:00:48;;;;;;;2.85;1.55;;;;;;;;;;5042213;28;20045;-65
2024/04/03 11:03:15;;;;;;;4.07;1.67;;;;;;;;;;5046837;28;20055;-65
2024/04/03 11:05:42;;;;;;;3.78;1.88;;;;;;;;;;5028330;28;20057;-65
2024/04/03 11:08:10;;;;;;;4.03;1.83;;;;;;;;;;5042812;28;20957;-65
2024/04/03 11:10:37;;;;;;;2.75;1.33;;;;;;;;;;5038946;28;20097;-65
2024/04/03 11:13:04;;;;;;;5.78;1.70;;;;;;;;;;5052496;28;20391;-65
2024/04/03 11:15:33;;;;;;;3.88;1.50;;;;;;;;;;5046714;28;20057;-66
2024/04/03 11:17:59;;;;;;;5.65;1.50;;;;;;;;;;5032186;28;20076;-65
2024/04/03 11:20:26;;;;;;;5.72;1.80;;;;;;;;;;5049329;28;20142;-65
2024/04/03 11:22:55;;;;;;;2.63;1.30;;;;;;;;;;5040407;28;20053;-71
2024/04/03 11:25:23;;;;;;;2.85;1.30;;;;;;;;;;5027534;28;20151;-65
2024/04/03 11:27:49;;;;;;;3.75;1.30;;;;;;;;;;5044150;28;20057;-66
2024/04/03 11:30:16;;;;;;;5.10;1.58;;;;;;;;;;5047729;28;20052;-67
2024/04/03 11:32:42;;;;;;;2.30;1.35;;;;;;;;;;5041283;28;20056;-66
2024/04/03 11:35:09;;;;;;;2.97;1.60;;;;;;;;;;5039501;28;20052;-66
2024/04/03 11:37:35;;;;;;;3.83;1.40;;;;;;;;;;5052424;28;20122;-66
2024/04/03 11:40:03;;;;;;;3.15;1.23;;;;;;;;;;5045526;28;21690;-68
2024/04/03 11:42:34;;;;;;;2.72;1.30;;;;;;;;;;5046498;28;20651;-67
2024/04/03 11:45:01;;;;;;;3.58;1.42;;;;;;;;;;5011970;28;20067;-67
2024/04/03 11:47:27;;;;;;;4.22;1.70;;;;;;;;;;5040733;28;20048;-66
2024/04/03 11:49:54;;;;;;;7.28;2.55;;;;;;;;;;5040547;28;20044;-67
2024/04/03 11:52:21;;;;;;;4.18;2.17;;;;;;;;;;5041327;28;20048;-65
2024/04/03 11:54:55;;;;;;;4.90;2.00;;;;;;;;;;5044567;28;20060;-66
2024/04/03 11:57:20;;;;;;;2.10;1.15;;;;;;;;;;5040530;28;20064;-66
2024/04/03 11:59:50;;;;;;;3.08;1.48;;;;;;;;;;5038466;28;20049;-68
2024/04/03 12:02:16;;;;;;;1.60;1.23;;;;;;;;;;5048274;28;20052;-68
2024/04/03 12:04:43;;;;;;;2.67;1.27;;;;;;;;;;5019817;28;20048;-66
2024/04/03 12:07:10;;;;;;;3.72;1.20;;;;;;;;;;5049779;28;20049;-66
2024/04/03 12:09:38;;;;;;;1.70;0.90;;;;;;;;;;5042383;28;20084;-66
2024/04/03 12:12:07;;;;;;;2.73;1.30;;;;;;;;;;5043054;28;20148;-66
2024/04/03 12:14:34;;;;;;;2.45;1.42;;;;;;;;;;5037868;28;20052;-70
2024/04/03 12:17:03;;;;;;;4.07;1.52;;;;;;;;;;5044987;28;20037;-66
2024/04/03 12:19:44;;;;;;;3.63;1.48;;;;;;;;;;5051285;28;20048;-66
2024/04/03 12:22:10;;;;;;;2.13;1.20;;;;;;;;;;5035946;28;20141;-68
2024/04/03 12:24:37;;;;;;;1.88;1.20;;;;;;;;;;5016210;28;20148;-66
2024/04/03 12:27:03;;;;;;;2.57;1.37;;;;;;;;;;5020288;28;20083;-65
2024/04/03 12:29:30;;;;;;;1.90;1.00;;;;;;;;;;5053257;28;20060;-66
2024/04/03 12:32:01;;;;;;;1.02;0.88;;;;;;;;;;5047792;28;20196;-67
2024/04/03 12:34:28;;;;;;;1.50;1.00;;;;;;;;;;5054948;28;20064;-67
2024/04/03 12:36:54;;;;;;;1.70;1.00;;;;;;;;;;5052742;28;20131;-65
2024/04/03 12:39:23;;;;;;;2.55;0.88;;;;;;;;;;5052314;28;20237;-67
2024/04/03 12:41:49;;;;;;;1.15;0.90;;;;;;;;;;5044892;28;20055;-65
2024/04/03 12:44:15;;;;;;;1.05;0.85;;;;;;;;;;5045090;28;20064;-67
2024/04/03 12:46:41;;;;;;;1.60;0.95;;;;;;;;;;5041480;28;20068;-67
2024/04/03 12:49:10;;;;;;;2.05;1.25;;;;;;;;;;5042409;28;20053;-68
2024/04/03 12:51:37;;;;;;;4.07;1.55;;;;;;;;;;5049747;28;20108;-67
2024/04/03 12:54:12;;;;;;;1.95;1.25;;;;;;;;;;5050396;28;20080;-66
2024/04/03 12:56:37;;;;;;;2.42;1.23;;;;;;;;;;5039340;28;20059;-66
2024/04/03 12:59:04;;;;;;;1.67;0.95;;;;;;;;;;5050050;28;20045;-66
2024/04/03 13:01:30;;;;;;;1.27;1.00;;;;;;;;;;5050511;28;20057;-66
2024/04/03 13:03:59;;;;;;;1.55;1.05;;;;;;;;;;5049210;28;20130;-66
2024/04/03 13:06:30;;;;;;;;;;;;;;;;;;5049238;28;20048;-66
2024/04/03 13:08:58;;;;;;;2.17;1.10;;;;;;;;;;5051835;28;19924;-66
2024/04/03 13:11:24;;;;;;;1.60;0.90;;;;;;;;;;5043759;28;20068;-66
2024/04/03 13:13:52;;;;;;;2.38;1.05;;;;;;;;;;5036372;28;20110;-66
2024/04/03 13:16:19;;;;;;;2.97;1.08;;;;;;;;;;4999818;28;20055;-66
2024/04/03 13:18:47;;;;;;;2.95;0.95;;;;;;;;;;5052495;28;20132;-66
2024/04/03 13:21:13;;;;;;;1.38;1.05;;;;;;;;;;5047654;28;20231;-66
2024/04/03 13:23:50;;;;;;;1.52;1.15;;;;;;;;;;5030833;28;20048;-66
2024/04/03 13:26:21;;;;;;;1.38;1.00;;;;;;;;;;4998666;28;20048;-67
2024/04/03 13:28:49;;;;;;;3.63;1.05;;;;;;;;;;5050947;28;20056;-66
2024/04/03 13:31:31;;;;;;;2.83;1.00;;;;;;;;;;5053770;28;20147;-66
2024/04/03 13:33:58;;;;;;;2.00;1.30;;;;;;;;;;5041902;28;20048;-67
2024/04/03 13:36:25;;;;;;;2.70;1.33;;;;;;;;;;4952142;28;20053;-67
2024/04/03 13:39:03;;;;;;;2.08;1.23;;;;;;;;;;5014321;28;20235;-66
2024/04/03 13:41:29;;;;;;;4.43;1.20;;;;;;;;;;5037359;28;20052;-65
2024/04/03 13:43:56;;;;;;;2.17;1.25;;;;;;;;;;5031580;28;20066;-66
2024/04/03 13:46:24;;;;;;;1.98;1.13;;;;;;;;;;4999910;28;20323;-67
2024/04/03 13:48:54;;;;;;;5.07;1.38;;;;;;;;;;5039419;28;20074;-66
2024/04/03 13:51:19;;;;;;;2.60;1.40;;;;;;;;;;5045543;28;20114;-66
2024/04/03 13:53:49;;;;;;;2.50;1.30;;;;;;;;;;5045075;28;20049;-65
2024/04/03 13:56:25;;;;;;;4.32;1.60;;;;;;;;;;4991121;28;20056;-66
2024/04/03 13:58:55;;;;;;;2.40;1.30;;;;;;;;;;5068859;28;20054;-65
2024/04/03 14:01:23;;;;;;;4.15;1.70;;;;;;;;;;5055510;28;20058;-66
2024/04/03 14:03:54;;;;;;;4.05;1.63;;;;;;;;;;5033291;28;20146;-69
2024/04/03 14:06:20;;;;;;;3.78;1.70;;;;;;;;;;5030388;28;20135;-67
2024/04/03 14:08:51;;;;;;;3.38;1.75;;;;;;;;;;5051139;28;20120;-67
2024/04/03 14:11:19;;;;;;;5.95;2.90;;;;;;;;;;5046538;28;20044;-66
2024/04/03 14:13:48;;;;;;;5.55;2.15;;;;;;;;;;5046339;28;20117;-65
2024/04/03 14:16:14;;;;;;;5.28;1.67;;;;;;;;;;5022507;28;20079;-66
2024/04/03 14:18:41;;;;;;;3.28;1.60;;;;;;;;;;5051666;28;20075;-66
2024/04/03 14:21:07;;;;;;;5.20;1.98;;;;;;;;;;5051460;28;20076;-66
2024/04/03 14:23:34;;;;;;;4.47;1.98;;;;;;;;;;5055278;28;20076;-68
2024/04/03 14:25:59;;;;;;;3.30;1.92;;;;;;;;;;5013015;28;20040;-67
2024/04/03 14:28:28;;;;;;;4.63;2.30;;;;;;;;;;5047761;28;20053;-67
2024/04/03 14:30:55;;;;;;;4.78;2.30;;;;;;;;;;5047450;28;20088;-66
2024/04/03 14:33:22;;;;;;;5.63;2.08;;;;;;;;;;5041005;28;20460;-66
2024/04/03 14:35:52;;;;;;;7.15;2.08;;;;;;;;;;5021197;28;20061;-67
2024/04/03 14:38:21;;;;;;;3.60;1.58;;;;;;;;;;5045354;28;20063;-66
2024/04/03 14:40:49;;;;;;;3.08;1.48;;;;;;;;;;5051056;28;20129;-67
2024/04/03 14:43:17;;;;;;;7.57;1.83;;;;;;;;;;5050868;28;20090;-65
2024/04/03 14:45:53;;;;;;;;;;;;;;;;;;5003233;28;21240;-67
2024/04/03 14:48:20;;;;;;;7.78;1.88;;;;;;;;;;5042483;28;20049;-67
2024/04/03 14:50:47;;;;;;;4.72;1.70;;;;;;;;;;5044247;28;20080;-67